Salmon Creek, California
Current Conditions -  °F | °C
As of 6:53 PM on Wednesday 22 Oct 2014 (Local Time) from KSTS Reporting Station
Broken Clouds Broken Clouds  
Wind Chill: 64°   Ceiling: 25000
Heat Index: 64°   Visibility: 10mi
Dew Point: 55°   Wind: 5mph
Humidity: 72%   Direction: 310°NW
Pressure: 30.02"   Gusts: NA
Location:  38.3575°N, 123.043°W
Report Text: KSTS 230153Z 31004KT 10SM FEW050 BKN250 18/13 A3002 RMK AO2 SLP158 T01780128
Loading
Personal Weather Stations






























Interactive Weather Map New forecast layout! Learn more

10-Day Weather Forecast

Advertisements
Track Severe Weather on mobile